createdAt,value
2023-03-05T00:02:17.895Z,4.22
2023-03-05T00:04:50.591Z,2.38
2023-03-05T00:07:23.458Z,2.60
2023-03-05T00:09:55.912Z,2.22
2023-03-05T00:12:29.263Z,3.20
2023-03-05T00:15:01.980Z,2.42
2023-03-05T00:17:35.034Z,2.90
2023-03-05T00:20:08.072Z,2.20
2023-03-05T00:22:41.068Z,3.03
2023-03-05T00:25:18.664Z,2.42
2023-03-05T00:27:52.597Z,2.45
2023-03-05T00:30:26.370Z,2.60
2023-03-05T00:33:05.530Z,2.67
2023-03-05T00:35:42.191Z,2.92
2023-03-05T00:38:15.117Z,2.92
2023-03-05T00:40:50.747Z,2.65
2023-03-05T00:43:23.833Z,3.13
2023-03-05T00:46:03.131Z,4.13
2023-03-05T00:48:36.246Z,4.13
2023-03-05T00:51:09.899Z,5.05
2023-03-05T00:53:42.878Z,2.60
2023-03-05T00:56:15.657Z,2.70
2023-03-05T00:58:48.562Z,3.00
2023-03-05T01:01:21.211Z,2.20
2023-03-05T01:03:58.697Z,3.40
2023-03-05T01:06:33.796Z,2.45
2023-03-05T01:09:07.480Z,3.03
2023-03-05T01:11:40.243Z,2.78
2023-03-05T01:14:13.628Z,3.03
2023-03-05T01:16:46.502Z,1.98
2023-03-05T01:19:19.486Z,2.22
2023-03-05T01:21:52.060Z,3.08
2023-03-05T01:24:25.049Z,1.40
2023-03-05T01:26:57.960Z,1.80
2023-03-05T01:29:31.209Z,1.20
2023-03-05T01:32:03.772Z,1.92
2023-03-05T01:34:38.280Z,2.08
2023-03-05T01:37:11.575Z,2.17
2023-03-05T01:39:45.702Z,3.58
2023-03-05T01:42:22.405Z,2.15
2023-03-05T01:45:01.740Z,4.00
2023-03-05T01:47:34.324Z,7.22
2023-03-05T01:50:09.314Z,5.60
2023-03-05T01:52:46.150Z,3.78
2023-03-05T01:55:24.876Z,2.78
2023-03-05T01:58:08.568Z,7.72
2023-03-05T02:00:47.575Z,11.18
2023-03-05T02:03:24.220Z,9.13
2023-03-05T02:05:57.214Z,4.53
2023-03-05T02:08:29.907Z,3.30
2023-03-05T02:11:02.897Z,2.88
2023-03-05T02:13:38.602Z,3.25
2023-03-05T02:16:11.654Z,2.88
2023-03-05T02:18:45.178Z,2.50
2023-03-05T02:21:36.361Z,2.30
2023-03-05T02:24:11.595Z,2.65
2023-03-05T02:26:45.251Z,2.33
2023-03-05T02:29:19.618Z,2.53
2023-03-05T02:31:52.666Z,1.95
2023-03-05T02:34:25.457Z,1.77
2023-03-05T02:36:58.759Z,1.98
2023-03-05T02:39:35.378Z,1.80
2023-03-05T02:42:13.015Z,1.85
2023-03-05T02:44:46.182Z,1.75
2023-03-05T02:47:19.203Z,2.00
2023-03-05T02:49:52.149Z,1.60
2023-03-05T02:52:25.893Z,1.58
2023-03-05T02:54:58.601Z,1.60
2023-03-05T02:57:35.669Z,2.03
2023-03-05T03:00:08.749Z,2.10
2023-03-05T03:02:41.718Z,3.08
2023-03-05T03:05:14.578Z,2.60
2023-03-05T03:07:47.432Z,3.05
2023-03-05T03:10:19.989Z,1.90
2023-03-05T03:12:52.854Z,1.92
2023-03-05T03:15:25.714Z,2.40
2023-03-05T03:17:58.689Z,2.58
2023-03-05T03:20:31.272Z,2.08
2023-03-05T03:23:04.178Z,1.27
2023-03-05T03:25:36.711Z,1.63
2023-03-05T03:28:09.612Z,1.92
2023-03-05T03:30:42.154Z,1.73
2023-03-05T03:33:15.134Z,1.58
2023-03-05T03:35:47.728Z,1.20
2023-03-05T03:38:20.589Z,1.42
2023-03-05T03:40:53.191Z,1.83
2023-03-05T03:43:26.174Z,1.15
2023-03-05T03:45:58.721Z,1.05
2023-03-05T03:48:31.784Z,1.60
2023-03-05T03:51:05.492Z,1.60
2023-03-05T03:53:38.485Z,1.52
2023-03-05T03:56:11.010Z,1.77
2023-03-05T03:58:44.386Z,1.88
2023-03-05T04:01:16.979Z,1.42
2023-03-05T04:03:49.953Z,3.13
2023-03-05T04:06:22.543Z,1.70
2023-03-05T04:08:55.471Z,2.08
2023-03-05T04:11:28.310Z,2.50
2023-03-05T04:14:01.235Z,2.17
2023-03-05T04:16:34.230Z,1.52
2023-03-05T04:19:07.120Z,1.95
2023-03-05T04:21:40.489Z,3.88
2023-03-05T04:24:13.388Z,2.72
2023-03-05T04:26:45.916Z,2.33
2023-03-05T04:29:18.999Z,2.80
2023-03-05T04:31:52.086Z,2.50
2023-03-05T04:34:28.041Z,3.33
2023-03-05T04:37:04.149Z,5.75
2023-03-05T04:39:37.358Z,4.95
2023-03-05T04:42:10.803Z,2.88
2023-03-05T04:44:43.946Z,1.83
2023-03-05T04:47:17.009Z,3.70
2023-03-05T04:49:49.942Z,3.65
2023-03-05T04:52:22.783Z,3.90
2023-03-05T04:54:57.743Z,2.80
2023-03-05T04:57:36.191Z,6.45
2023-03-05T05:00:14.625Z,5.47
2023-03-05T05:02:48.589Z,2.80
2023-03-05T05:05:23.741Z,1.80
2023-03-05T05:07:56.955Z,2.53
2023-03-05T05:10:30.018Z,2.40
2023-03-05T05:13:02.973Z,3.80
2023-03-05T05:15:35.860Z,4.00
2023-03-05T05:18:08.734Z,4.75
2023-03-05T05:20:41.669Z,2.95
2023-03-05T05:23:14.245Z,3.90
2023-03-05T05:25:47.123Z,4.03
2023-03-05T05:28:19.604Z,3.97
2023-03-05T05:30:52.457Z,4.22
2023-03-05T05:33:25.531Z,7.72
2023-03-05T05:35:58.519Z,8.07
2023-03-05T05:38:31.174Z,3.92
2023-03-05T05:41:05.145Z,4.30
2023-03-05T05:43:38.119Z,3.88
2023-03-05T05:46:13.240Z,4.03
2023-03-05T05:48:46.243Z,4.95
2023-03-05T05:51:20.567Z,5.97
2023-03-05T05:53:53.566Z,3.88
2023-03-05T05:56:26.532Z,5.40
2023-03-05T05:58:59.095Z,4.43
2023-03-05T06:01:33.855Z,4.80
2023-03-05T06:04:06.545Z,6.68
2023-03-05T06:06:39.524Z,8.00
2023-03-05T06:09:12.065Z,5.10
2023-03-05T06:11:45.076Z,4.60
2023-03-05T06:14:17.892Z,5.18
2023-03-05T06:16:50.913Z,6.55
2023-03-05T06:19:23.411Z,5.40
2023-03-05T06:21:56.927Z,5.13
2023-03-05T06:24:29.491Z,4.43
2023-03-05T06:27:02.348Z,3.55
2023-03-05T06:29:34.988Z,3.38
2023-03-05T06:32:07.970Z,3.83
2023-03-05T06:34:40.607Z,2.97
2023-03-05T06:37:13.511Z,3.78
2023-03-05T06:39:46.014Z,3.58
2023-03-05T06:42:20.152Z,2.92
2023-03-05T06:44:52.717Z,2.13
2023-03-05T06:47:25.555Z,2.72
2023-03-05T06:49:58.149Z,3.40
2023-03-05T06:52:30.952Z,2.28
2023-03-05T06:55:03.661Z,2.17
2023-03-05T06:57:37.112Z,2.42
2023-03-05T07:00:10.590Z,2.38
2023-03-05T07:02:43.674Z,2.15
2023-03-05T07:05:16.793Z,2.20
2023-03-05T07:07:50.085Z,2.38
2023-03-05T07:10:22.645Z,2.15
2023-03-05T07:12:55.632Z,3.03
2023-03-05T07:15:34.135Z,3.20
2023-03-05T07:18:10.717Z,4.03
2023-03-05T07:20:43.312Z,2.50
2023-03-05T07:23:16.194Z,2.95
2023-03-05T07:25:48.818Z,6.70
2023-03-05T07:28:21.777Z,5.95
2023-03-05T07:31:02.202Z,6.78
2023-03-05T07:33:38.384Z,3.90
2023-03-05T07:36:12.387Z,4.00
2023-03-05T07:38:45.853Z,4.00
2023-03-05T07:41:29.962Z,3.47
2023-03-05T07:44:03.653Z,3.58
2023-03-05T07:46:36.649Z,2.53
2023-03-05T07:49:09.558Z,2.90
2023-03-05T07:51:42.831Z,3.63
2023-03-05T07:54:15.746Z,3.97
2023-03-05T07:56:49.070Z,6.90
2023-03-05T07:59:22.059Z,5.10
2023-03-05T08:01:56.034Z,4.93
2023-03-05T08:04:30.331Z,4.60
2023-03-05T08:07:03.270Z,3.53
2023-03-05T08:09:36.171Z,3.78
2023-03-05T08:12:11.864Z,4.35
2023-03-05T08:14:44.805Z,4.80
2023-03-05T08:17:17.641Z,5.78
2023-03-05T08:19:50.544Z,5.68
2023-03-05T08:22:26.949Z,6.35
2023-03-05T08:24:59.994Z,5.53
2023-03-05T08:27:32.753Z,5.65
2023-03-05T08:30:05.908Z,5.88
2023-03-05T08:32:38.628Z,6.68
2023-03-05T08:35:11.653Z,7.15
2023-03-05T08:37:44.333Z,4.45
2023-03-05T08:40:20.584Z,4.97
2023-03-05T08:42:53.359Z,3.25
2023-03-05T08:45:27.932Z,4.20
2023-03-05T08:48:00.463Z,5.25
2023-03-05T08:50:33.355Z,4.53
2023-03-05T08:53:05.880Z,6.15
2023-03-05T08:55:39.465Z,3.95
2023-03-05T08:58:11.992Z,4.20
2023-03-05T09:00:44.883Z,4.15
2023-03-05T09:03:17.594Z,7.30
2023-03-05T09:05:51.700Z,4.85
2023-03-05T09:08:24.278Z,4.32
2023-03-05T09:10:57.659Z,3.70
2023-03-05T09:13:30.438Z,3.50
2023-03-05T09:16:09.286Z,4.43
2023-03-05T09:18:41.889Z,7.22
2023-03-05T09:21:15.856Z,1.60
2023-03-05T09:23:48.576Z,3.03
2023-03-05T09:26:21.874Z,3.97
2023-03-05T09:28:54.426Z,2.88
2023-03-05T09:31:27.400Z,3.45
2023-03-05T09:33:59.971Z,2.60
2023-03-05T09:36:32.863Z,2.67
2023-03-05T09:39:07.309Z,6.30
2023-03-05T09:41:58.568Z,2.67
2023-03-05T09:44:47.775Z,1.90
2023-03-05T09:47:38.952Z,3.17
2023-03-05T09:50:32.145Z,1.92
2023-03-05T09:53:15.336Z,1.38
2023-03-05T09:55:51.033Z,1.63
2023-03-05T09:58:34.461Z,2.90
2023-03-05T10:01:11.804Z,3.95
2023-03-05T10:04:13.906Z,2.72
2023-03-05T10:06:46.395Z,5.38
2023-03-05T10:09:28.717Z,4.85
2023-03-05T10:12:03.645Z,2.85
2023-03-05T10:14:39.320Z,4.22
2023-03-05T10:17:11.884Z,3.72
2023-03-05T10:19:56.936Z,4.28
2023-03-05T10:22:32.089Z,3.38
2023-03-05T10:25:05.039Z,3.28
2023-03-05T10:27:54.092Z,3.30
2023-03-05T10:30:30.193Z,2.75
2023-03-05T10:33:12.966Z,2.67
2023-03-05T10:35:49.299Z,2.70
2023-03-05T10:38:25.013Z,2.13
2023-03-05T10:40:59.656Z,2.50
2023-03-05T10:43:44.118Z,2.05
2023-03-05T10:46:17.866Z,1.88
2023-03-05T10:48:53.218Z,2.45
2023-03-05T10:51:38.477Z,2.67
2023-03-05T10:54:20.723Z,5.30
2023-03-05T10:57:13.927Z,2.47
2023-03-05T10:59:48.500Z,2.28
2023-03-05T11:02:22.526Z,4.43
2023-03-05T11:04:55.283Z,4.15
2023-03-05T11:07:34.238Z,3.97
2023-03-05T11:10:13.969Z,2.13
2023-03-05T11:12:46.829Z,2.47
2023-03-05T11:15:26.662Z,2.33
2023-03-05T11:18:07.950Z,1.80
2023-03-05T11:20:40.722Z,4.87
2023-03-05T11:23:26.608Z,5.90
2023-03-05T11:26:03.855Z,3.95
2023-03-05T11:28:38.411Z,5.72
2023-03-05T11:31:16.963Z,5.47
2023-03-05T11:34:13.062Z,4.78
2023-03-05T11:37:03.914Z,3.80
2023-03-05T11:39:38.785Z,4.10
2023-03-05T11:42:14.025Z,6.20
2023-03-05T11:44:48.502Z,11.13
2023-03-05T11:47:26.900Z,2.80
2023-03-05T11:50:05.259Z,3.67
2023-03-05T11:52:46.993Z,2.70
2023-03-05T11:55:41.750Z,6.00
2023-03-05T11:58:27.185Z,1.58
2023-03-05T12:01:01.420Z,4.15
2023-03-05T12:03:35.453Z,2.35
2023-03-05T12:06:21.116Z,2.42
2023-03-05T12:08:58.658Z,5.18
2023-03-05T12:11:32.598Z,4.60
2023-03-05T12:14:05.261Z,12.95
2023-03-05T12:16:41.501Z,3.75
2023-03-05T12:19:20.550Z,3.88
2023-03-05T12:21:57.916Z,3.08
2023-03-05T12:24:30.491Z,4.78
2023-03-05T12:27:03.528Z,2.33
2023-03-05T12:29:52.991Z,4.55
2023-03-05T12:32:26.301Z,4.97
2023-03-05T12:35:01.946Z,3.63
2023-03-05T12:37:34.877Z,4.70
2023-03-05T12:40:10.253Z,3.13
2023-03-05T12:42:47.537Z,3.13
2023-03-05T12:45:23.471Z,2.30
2023-03-05T12:47:57.932Z,3.63
2023-03-05T12:50:31.111Z,6.45
2023-03-05T12:53:07.110Z,2.83
2023-03-05T12:55:47.918Z,5.80
2023-03-05T12:58:42.938Z,5.05
2023-03-05T13:01:22.457Z,4.60
2023-03-05T13:03:56.899Z,4.70
2023-03-05T13:06:34.926Z,2.67
2023-03-05T13:11:53.168Z,2.22
2023-03-05T13:14:33.324Z,2.55
2023-03-05T13:17:26.766Z,2.58
2023-03-05T13:22:43.680Z,2.08
2023-03-05T13:25:20.873Z,2.05
2023-03-05T13:27:53.378Z,1.63
2023-03-05T13:30:30.138Z,2.08
2023-03-05T13:33:16.571Z,1.92
2023-03-05T13:35:49.656Z,1.90
2023-03-05T13:38:22.137Z,3.35
2023-03-05T13:41:03.392Z,3.97
2023-03-05T13:43:42.753Z,3.67
2023-03-05T13:46:23.418Z,2.45
2023-03-05T13:48:56.199Z,1.63
2023-03-05T13:51:42.294Z,2.03
2023-03-05T13:54:15.816Z,1.70
2023-03-05T13:57:08.965Z,1.73
2023-03-05T13:59:42.749Z,1.77
2023-03-05T14:02:17.105Z,1.95
2023-03-05T14:04:50.437Z,1.73
2023-03-05T14:07:25.028Z,1.67
2023-03-05T14:09:57.651Z,1.23
2023-03-05T14:12:35.356Z,2.10
2023-03-05T14:15:21.124Z,1.67
2023-03-05T14:18:07.858Z,1.98
2023-03-05T14:20:41.126Z,2.15
2023-03-05T14:23:27.537Z,1.98
2023-03-05T14:26:18.635Z,2.22
2023-03-05T14:28:54.596Z,0.90
2023-03-05T14:31:28.289Z,1.33
2023-03-05T14:34:03.425Z,1.40
2023-03-05T14:36:36.114Z,1.58
2023-03-05T14:39:21.604Z,1.33
2023-03-05T14:41:54.165Z,1.92
2023-03-05T14:44:27.315Z,3.78
2023-03-05T14:46:59.856Z,4.25
2023-03-05T14:49:32.831Z,7.03
2023-03-05T14:52:06.977Z,7.45
2023-03-05T14:54:39.814Z,9.27
2023-03-05T14:57:18.775Z,2.08
2023-03-05T14:59:51.672Z,2.90
2023-03-05T15:02:25.590Z,2.17
2023-03-05T15:04:58.627Z,2.17
2023-03-05T15:07:32.101Z,4.07
2023-03-05T15:10:05.401Z,4.28
2023-03-05T15:12:37.957Z,2.05
2023-03-05T15:15:11.970Z,1.95
2023-03-05T15:17:47.879Z,2.53
2023-03-05T15:20:22.028Z,1.60
2023-03-05T15:22:54.744Z,2.83
2023-03-05T15:25:29.085Z,1.58
2023-03-05T15:28:01.968Z,1.33
2023-03-05T15:30:36.885Z,2.47
2023-03-05T15:33:10.696Z,1.83
2023-03-05T15:35:43.803Z,1.08
2023-03-05T15:38:16.530Z,1.65
2023-03-05T15:40:49.883Z,1.60
2023-03-05T15:43:22.430Z,0.88
2023-03-05T15:45:55.399Z,1.80
2023-03-05T15:48:27.934Z,1.40
2023-03-05T15:51:02.119Z,2.08
2023-03-05T15:53:34.678Z,2.60
2023-03-05T15:56:07.675Z,2.05
2023-03-05T15:58:40.150Z,3.00
2023-03-05T16:01:13.328Z,2.80
2023-03-05T16:03:46.266Z,3.17
2023-03-05T16:06:23.127Z,3.25
2023-03-05T16:08:57.566Z,4.53
2023-03-05T16:11:31.760Z,2.97
2023-03-05T16:14:05.419Z,2.72
2023-03-05T16:16:38.614Z,3.10
2023-03-05T16:19:12.261Z,1.50
2023-03-05T16:21:45.191Z,2.63
2023-03-05T16:24:17.854Z,1.90
2023-03-05T16:26:50.684Z,2.83
2023-03-05T16:29:26.484Z,4.07
2023-03-05T16:31:59.946Z,4.20
2023-03-05T16:34:34.944Z,2.83
2023-03-05T16:37:07.869Z,3.15
2023-03-05T16:39:41.168Z,3.60
2023-03-05T16:42:14.258Z,3.30
2023-03-05T16:44:47.839Z,4.93
2023-03-05T16:47:20.820Z,4.15
2023-03-05T16:49:53.344Z,5.10
2023-03-05T16:52:26.199Z,3.72
2023-03-05T16:54:58.821Z,3.55
2023-03-05T16:57:31.758Z,4.75
2023-03-05T17:00:05.014Z,5.90
2023-03-05T17:02:37.982Z,6.80
2023-03-05T17:05:10.722Z,5.32
2023-03-05T17:07:44.754Z,5.80
2023-03-05T17:10:18.950Z,3.25
2023-03-05T17:12:53.052Z,3.28
2023-03-05T17:15:25.658Z,3.38
2023-03-05T17:17:58.565Z,4.28
2023-03-05T17:20:31.312Z,5.18
2023-03-05T17:23:07.586Z,16.13
2023-03-05T17:25:40.161Z,20.00
2023-03-05T17:28:13.033Z,23.45
2023-03-05T17:30:45.630Z,19.35
2023-03-05T17:33:18.505Z,17.83
2023-03-05T17:35:51.154Z,18.27
2023-03-05T17:38:24.399Z,17.85
2023-03-05T17:40:56.974Z,15.60
2023-03-05T17:43:29.929Z,8.43
2023-03-05T17:46:02.583Z,5.82
2023-03-05T17:48:39.076Z,5.70
2023-03-05T17:51:12.868Z,5.05
2023-03-05T17:53:46.237Z,3.05
2023-03-05T17:56:26.600Z,6.07
2023-03-05T17:59:00.564Z,5.28
2023-03-05T18:01:34.818Z,5.13
2023-03-05T18:04:09.126Z,4.97
2023-03-05T18:06:43.201Z,9.50
2023-03-05T18:09:17.491Z,9.90
2023-03-05T18:11:56.101Z,9.25
2023-03-05T18:14:29.050Z,9.65
2023-03-05T18:17:01.766Z,6.43
2023-03-05T18:19:34.611Z,7.00
2023-03-05T18:22:07.780Z,7.55
2023-03-05T18:24:41.125Z,7.03
2023-03-05T18:27:13.662Z,6.00
2023-03-05T18:29:48.018Z,6.55
2023-03-05T18:32:25.703Z,6.70
2023-03-05T18:34:58.769Z,6.95
2023-03-05T18:37:31.484Z,6.03
2023-03-05T18:40:09.794Z,7.38
2023-03-05T18:42:42.489Z,7.80
2023-03-05T18:45:16.266Z,8.77
2023-03-05T18:47:49.474Z,7.10
2023-03-05T18:50:23.191Z,9.27
2023-03-05T18:52:55.866Z,9.13
2023-03-05T18:55:29.785Z,7.57
2023-03-05T18:58:03.702Z,7.00
2023-03-05T19:00:36.561Z,7.05
2023-03-05T19:03:09.372Z,7.40
2023-03-05T19:05:42.560Z,7.10
2023-03-05T19:08:15.120Z,7.60
2023-03-05T19:10:48.246Z,8.13
2023-03-05T19:13:25.437Z,9.40
2023-03-05T19:15:58.392Z,7.47
2023-03-05T19:18:34.185Z,7.95
2023-03-05T19:21:08.579Z,5.90
2023-03-05T19:23:41.165Z,5.70
2023-03-05T19:26:14.092Z,9.07
2023-03-05T19:28:46.704Z,13.48
2023-03-05T19:31:19.677Z,11.40
2023-03-05T19:33:52.299Z,10.32
2023-03-05T19:36:25.291Z,16.63
2023-03-05T19:38:57.778Z,7.90
2023-03-05T19:41:30.788Z,4.28
2023-03-05T19:44:03.876Z,4.20
2023-03-05T19:46:37.001Z,4.45
2023-03-05T19:49:10.045Z,5.55
2023-03-05T19:51:44.126Z,14.48
2023-03-05T19:54:17.816Z,6.95
2023-03-05T19:56:52.934Z,6.47
2023-03-05T19:59:26.987Z,7.70
2023-03-05T20:02:00.595Z,7.07
2023-03-05T20:04:33.276Z,6.15
2023-03-05T20:07:07.472Z,6.55
2023-03-05T20:09:39.998Z,5.07
2023-03-05T20:12:13.026Z,3.40
2023-03-05T20:14:45.598Z,3.92
2023-03-05T20:17:19.907Z,3.72
2023-03-05T20:19:53.189Z,3.28
2023-03-05T20:22:26.121Z,3.20
2023-03-05T20:24:58.760Z,4.22
2023-03-05T20:27:31.653Z,6.22
2023-03-05T20:30:05.539Z,3.83
2023-03-05T20:32:38.516Z,5.72
2023-03-05T20:35:20.739Z,3.63
2023-03-05T20:38:13.097Z,4.05
2023-03-05T20:40:45.773Z,4.35
2023-03-05T20:43:19.011Z,5.15
2023-03-05T20:45:54.277Z,4.07
2023-03-05T20:48:28.550Z,3.50
2023-03-05T20:51:10.928Z,5.38
2023-03-05T20:53:43.840Z,6.60
2023-03-05T20:56:16.588Z,8.35
2023-03-05T20:58:49.473Z,6.07
2023-03-05T21:01:22.303Z,4.15
2023-03-05T21:03:57.422Z,6.03
2023-03-05T21:06:30.999Z,5.63
2023-03-05T21:09:04.589Z,5.18
2023-03-05T21:11:37.592Z,5.90
2023-03-05T21:14:10.663Z,15.93
2023-03-05T21:16:43.273Z,30.38
2023-03-05T21:19:16.339Z,27.58
2023-03-05T21:21:48.828Z,19.35
2023-03-05T21:24:24.072Z,17.13
2023-03-05T21:26:56.842Z,31.90
2023-03-05T21:29:29.742Z,13.10
2023-03-05T21:32:02.613Z,9.63
2023-03-05T21:34:35.629Z,14.75
2023-03-05T21:37:08.449Z,16.48
2023-03-05T21:39:41.285Z,11.23
2023-03-05T21:42:13.842Z,10.70
2023-03-05T21:44:46.940Z,9.32
2023-03-05T21:47:19.501Z,9.00
2023-03-05T21:49:52.376Z,12.77
2023-03-05T21:52:24.966Z,13.73
2023-03-05T21:54:58.084Z,13.13
2023-03-05T21:57:30.772Z,11.50
2023-03-05T22:00:06.300Z,10.43
2023-03-05T22:02:44.406Z,9.40
2023-03-05T22:05:17.692Z,8.52
2023-03-05T22:07:50.226Z,7.00
2023-03-05T22:10:23.263Z,6.50
2023-03-05T22:12:59.833Z,5.20
2023-03-05T22:15:33.620Z,7.07
2023-03-05T22:18:06.475Z,5.40
2023-03-05T22:20:39.408Z,6.32
2023-03-05T22:23:12.311Z,4.63
2023-03-05T22:25:45.298Z,4.28
2023-03-05T22:28:17.920Z,4.45
2023-03-05T22:30:50.895Z,4.13
2023-03-05T22:33:23.446Z,7.97
2023-03-05T22:35:56.493Z,8.05
2023-03-05T22:38:29.095Z,5.60
2023-03-05T22:41:02.007Z,4.82
2023-03-05T22:43:34.777Z,6.35
2023-03-05T22:46:10.766Z,5.55
2023-03-05T22:48:43.530Z,4.15
2023-03-05T22:51:17.003Z,4.18
2023-03-05T22:53:49.720Z,3.78
2023-03-05T22:56:22.578Z,4.32
2023-03-05T22:58:55.139Z,3.83
2023-03-05T23:01:28.126Z,3.75
2023-03-05T23:04:07.443Z,3.45
2023-03-05T23:06:40.429Z,3.45
2023-03-05T23:09:12.935Z,4.40
2023-03-05T23:11:45.792Z,5.28
2023-03-05T23:14:18.366Z,11.63
2023-03-05T23:16:51.304Z,11.90
2023-03-05T23:19:23.869Z,8.48
2023-03-05T23:21:56.719Z,5.20
2023-03-05T23:24:29.913Z,5.93
2023-03-05T23:27:05.568Z,4.50
2023-03-05T23:29:54.706Z,4.75
2023-03-05T23:32:30.949Z,6.45
2023-03-05T23:35:03.769Z,3.40
2023-03-05T23:37:36.727Z,4.72
2023-03-05T23:40:11.994Z,3.28
2023-03-05T23:42:44.951Z,5.82
2023-03-05T23:45:18.370Z,3.55
2023-03-05T23:47:52.128Z,3.15
2023-03-05T23:50:26.050Z,4.75
2023-03-05T23:53:01.667Z,4.20
2023-03-05T23:55:42.381Z,4.20
2023-03-05T23:58:15.695Z,2.50
